Time;durP1;ratioP1;P1;durP2;ratioP2;P2;SDS_P1;SDS_P2;PMS_P1;PMS_P2;Temp;Humidity;BMP_temperature;BMP_pressure;BME280_temperature;BME280_humidity;BME280_pressure;Samples;Min_cycle;Max_cycle;Signal;HPM_P1;HPM_P2
2022/03/28 00:01:28;;;;;;;;;29.50;26.50;;;;;15.61;69.25;102208.03;6334230;22;45259;-93
2022/03/28 00:03:54;;;;;;;;;28.25;25.50;;;;;15.62;69.23;102212.47;6308297;22;47178;-93
2022/03/28 00:06:19;;;;;;;;;25.50;24.75;;;;;15.51;69.92;102190.81;6333933;22;45390;-92
2022/03/28 00:08:45;;;;;;;;;28.25;22.75;;;;;15.40;69.86;102180.63;6307539;22;45323;-94
2022/03/28 00:11:10;;;;;;;;;35.25;27.50;;;;;15.46;70.21;102193.22;6307916;22;45529;-93
2022/03/28 00:13:36;;;;;;;;;31.00;27.25;;;;;15.38;70.29;102181.38;6333939;22;46869;-92
2022/03/28 00:16:03;;;;;;;;;30.00;24.75;;;;;15.38;70.25;102184.94;6334585;22;45420;-92
2022/03/28 00:18:29;;;;;;;;;29.00;23.50;;;;;15.35;70.61;102192.72;6334611;22;45369;-94
2022/03/28 00:20:55;;;;;;;;;33.25;25.25;;;;;15.36;70.63;102198.91;6333884;22;45399;-93
2022/03/28 00:23:21;;;;;;;;;31.00;24.50;;;;;15.31;70.99;102190.72;6307311;22;47872;-93
2022/03/28 00:25:47;;;;;;;;;31.00;25.00;;;;;15.27;70.85;102194.06;6333871;22;45275;-93
2022/03/28 00:28:13;;;;;;;;;31.75;28.50;;;;;15.22;71.21;102180.63;6333725;22;45551;-92
2022/03/28 00:30:39;;;;;;;;;27.25;22.00;;;;;15.26;71.37;102201.09;6333981;22;45536;-94
2022/03/28 00:33:05;;;;;;;;;36.50;27.00;;;;;15.24;71.39;102183.34;6307559;22;47008;-93
2022/03/28 00:35:31;;;;;;;;;30.50;24.50;;;;;15.17;71.54;102171.56;6307417;22;45366;-93
2022/03/28 00:37:57;;;;;;;;;22.00;18.25;;;;;15.13;71.76;102169.56;6307267;22;45155;-93
2022/03/28 00:40:27;;;;;;;;;31.50;26.25;;;;;15.11;71.74;102173.88;6333756;22;45449;-93
2022/03/28 00:42:53;;;;;;;;;27.25;24.75;;;;;15.14;72.19;102185.53;6333946;22;48498;-92
2022/03/28 00:45:19;;;;;;;;;34.25;26.00;;;;;15.04;72.25;102163.03;6307777;22;45902;-93
2022/03/28 00:47:44;;;;;;;;;26.25;24.25;;;;;15.04;72.35;102164.75;6334570;22;45468;-92
2022/03/28 00:50:10;;;;;;;;;31.50;26.25;;;;;14.96;72.28;102162.63;6333425;22;45439;-93
2022/03/28 00:52:37;;;;;;;;;30.00;26.00;;;;;15.01;72.41;102160.22;6307237;22;48041;-93
2022/03/28 00:55:03;;;;;;;;;31.75;24.75;;;;;14.99;72.39;102166.25;6306783;22;45435;-93
2022/03/28 00:57:30;;;;;;;;;33.00;27.00;;;;;14.94;72.98;102160.75;6307869;22;45595;-93
2022/03/28 00:59:55;;;;;;;;;32.75;28.75;;;;;14.84;72.86;102152.28;6335823;22;45451;-92
2022/03/28 01:02:21;;;;;;;;;32.25;24.75;;;;;14.89;72.70;102159.59;6334613;22;45446;-93
2022/03/28 01:04:46;;;;;;;;;26.50;23.25;;;;;14.84;73.00;102157.59;6336136;22;45644;-93
2022/03/28 01:07:13;;;;;;;;;35.00;32.00;;;;;14.88;73.19;102156.06;6306736;22;45305;-94
2022/03/28 01:09:38;;;;;;;;;29.00;26.50;;;;;14.84;73.41;102152.28;6333310;22;45275;-93
2022/03/28 01:12:05;;;;;;;;;28.50;24.00;;;;;14.83;73.44;102150.50;6307362;22;48231;-94
2022/03/28 01:14:32;;;;;;;;;31.50;26.25;;;;;14.71;73.39;102141.97;6336263;22;45214;-92
2022/03/28 01:19:41;;;;;;;;;25.00;23.25;;;;;14.68;73.48;102144.44;6335987;22;45286;-93
2022/03/28 01:22:06;;;;;;;;;34.25;28.75;;;;;14.71;73.85;102150.81;6305934;22;47196;-92
2022/03/28 01:24:32;;;;;;;;;34.00;28.25;;;;;14.66;74.16;102144.38;6335837;22;45281;-92
2022/03/28 01:26:58;;;;;;;;;30.50;28.50;;;;;14.59;74.48;102131.66;6307548;22;45377;-93
2022/03/28 01:29:25;;;;;;;;;26.00;23.00;;;;;14.52;74.72;102123.44;6307367;22;45518;-93
2022/03/28 02:02:06;;;;;;;;;27.50;24.25;;;;;14.19;76.96;102116.47;6334404;22;45364;-93
2022/03/28 02:04:32;;;;;;;;;34.00;23.25;;;;;14.23;76.62;102128.09;6307106;22;45463;-94
2022/03/28 02:06:58;;;;;;;;;27.00;23.00;;;;;14.15;76.72;102114.47;6334273;22;45422;-93
2022/03/28 02:09:23;;;;;;;;;26.00;23.25;;;;;14.12;77.25;102113.44;6333880;22;48437;-93
2022/03/28 02:11:48;;;;;;;;;30.50;23.50;;;;;14.14;77.61;102119.69;6314650;22;45663;-93
2022/03/28 02:14:13;;;;;;;;;29.25;26.50;;;;;14.08;77.50;102107.06;6349753;22;45331;-93
2022/03/28 02:16:39;;;;;;;;;30.25;28.00;;;;;14.04;77.91;102107.75;6323886;22;44784;-93
2022/03/28 02:19:04;;;;;;;;;32.00;27.00;;;;;13.99;78.02;102103.97;6309336;22;47078;-93
2022/03/28 02:21:30;;;;;;;;;33.25;26.25;;;;;14.05;78.04;102106.91;6335996;22;45203;-93
2022/03/28 02:23:55;;;;;;;;;35.00;25.00;;;;;14.01;78.20;102103.22;6334643;22;45225;-93
2022/03/28 02:26:20;;;;;;;;;26.75;25.25;;;;;13.98;78.85;102110.97;6308002;22;45262;-93
2022/03/28 02:28:47;;;;;;;;;32.25;27.50;;;;;13.94;79.03;102106.34;6332902;22;47118;-92
2022/03/28 02:31:13;;;;;;;;;33.00;29.00;;;;;13.95;79.26;102102.88;6307456;22;45585;-93
2022/03/28 02:33:38;;;;;;;;;34.50;28.25;;;;;13.86;79.24;102092.75;6307473;22;45319;-94
2022/03/28 02:36:05;;;;;;;;;34.00;26.00;;;;;13.94;79.61;102101.97;6332721;22;45530;-93
2022/03/28 02:38:30;;;;;;;;;37.00;28.25;;;;;13.94;79.83;102109.00;6306604;22;48186;-94
2022/03/28 02:40:56;;;;;;;;;27.75;24.25;;;;;13.88;79.72;102100.72;6306773;22;45450;-93
2022/03/28 02:43:23;;;;;;;;;37.00;26.50;;;;;13.88;80.05;102090.19;6333238;22;45430;-93
2022/03/28 02:45:48;;;;;;;;;34.00;28.75;;;;;13.94;80.35;102098.44;6307474;22;45431;-92
2022/03/28 02:48:13;;;;;;;;;36.50;30.50;;;;;13.85;80.47;102083.00;6307914;22;47092;-92
2022/03/28 02:50:39;;;;;;;;;36.00;28.00;;;;;13.94;80.68;102090.53;6336180;22;45226;-93
2022/03/28 02:53:04;;;;;;;;;33.50;28.25;;;;;13.91;80.66;102091.25;6307960;22;45551;-93
2022/03/28 02:55:30;;;;;;;;;31.75;27.75;;;;;13.84;80.83;102074.16;6308478;22;45235;-92
2022/03/28 02:57:55;;;;;;;;;35.50;25.75;;;;;13.84;80.66;102067.97;6308363;22;48246;-93
2022/03/28 03:00:21;;;;;;;;;30.00;27.25;;;;;13.82;81.23;102069.63;6334788;22;45373;-93
2022/03/28 03:02:46;;;;;;;;;25.25;21.25;;;;;13.82;81.12;102061.72;6308070;22;45431;-93
2022/03/28 03:05:13;;;;;;;;;30.75;21.25;;;;;13.79;81.65;102065.09;6345070;22;45455;-92
2022/03/28 03:07:39;;;;;;;;;34.75;25.50;;;;;13.86;81.65;102076.91;6320905;22;47104;-92
2022/03/28 03:10:06;;;;;;;;;33.50;26.75;;;;;13.76;82.42;102053.50;6316735;22;45488;-93
2022/03/28 03:12:31;;;;;;;;;26.75;26.25;;;;;13.72;82.49;102057.69;6338225;22;45408;-93
2022/03/28 03:14:57;;;;;;;;;31.25;27.25;;;;;13.74;81.80;102066.59;6336800;22;45477;-93
2022/03/28 03:17:23;;;;;;;;;37.00;25.50;;;;;13.67;82.10;102060.09;6308258;22;47055;-93
2022/03/28 03:19:48;;;;;;;;;24.75;24.25;;;;;13.63;82.69;102047.56;6336539;22;45277;-93
2022/03/28 03:22:15;;;;;;;;;33.50;25.25;;;;;13.60;82.58;102044.75;6307028;22;45279;-92
2022/03/28 03:24:44;;;;;;;;;33.00;23.75;;;;;13.67;83.00;102054.81;6334743;22;45297;-93
2022/03/28 03:27:10;;;;;;;;;34.75;26.75;;;;;13.62;83.38;102044.00;6314404;22;47284;-93
2022/03/28 03:29:36;;;;;;;;;28.25;27.25;;;;;13.59;83.06;102050.84;6309164;22;45431;-93
2022/03/28 03:32:03;;;;;;;;;37.25;29.25;;;;;13.63;83.04;102063.41;6334500;22;45278;-93
2022/03/28 03:34:29;;;;;;;;;33.00;26.75;;;;;13.48;83.24;102037.03;6308288;22;45297;-94
2022/03/28 03:36:54;;;;;;;;;34.50;29.25;;;;;13.52;83.80;102053.13;6333018;22;48544;-92
2022/03/28 03:39:22;;;;;;;;;31.75;26.00;;;;;13.48;83.59;102042.31;6334563;22;45710;-92
2022/03/28 03:41:47;;;;;;;;;30.75;27.50;;;;;13.48;83.88;102045.84;6308142;22;45521;-93
2022/03/28 03:44:13;;;;;;;;;37.50;30.25;;;;;13.45;84.36;102039.53;6308467;22;45306;-92
2022/03/28 03:46:38;;;;;;;;;31.75;28.25;;;;;13.44;84.61;102049.16;6334129;22;47726;-92
2022/03/28 03:49:03;;;;;;;;;34.75;30.75;;;;;13.39;84.96;102029.53;6307447;22;45455;-91
2022/03/28 03:51:29;;;;;;;;;30.50;25.50;;;;;13.49;85.34;102047.69;6307623;22;45375;-92
2022/03/28 03:53:54;;;;;;;;;33.75;29.50;;;;;13.40;85.92;102034.00;6307921;22;45484;-92
2022/03/28 03:56:20;;;;;;;;;39.25;32.25;;;;;13.29;85.93;102029.06;6336064;22;45369;-93
2022/03/28 03:58:45;;;;;;;;;40.25;33.50;;;;;13.40;85.69;102045.44;6344832;22;45412;-92
2022/03/28 04:01:11;;;;;;;;;39.50;34.00;;;;;13.34;86.57;102042.47;6344882;22;45673;-93
2022/03/28 04:03:37;;;;;;;;;39.25;30.00;;;;;13.38;86.46;102044.44;6319609;22;45254;-93
2022/03/28 04:06:03;;;;;;;;;40.00;33.75;;;;;13.32;87.16;102037.94;6294805;22;47090;-93
2022/03/28 04:08:28;;;;;;;;;45.00;37.00;;;;;13.25;87.03;102027.03;6341727;22;45232;-92
2022/03/28 04:10:54;;;;;;;;;43.00;35.75;;;;;13.30;87.41;102029.94;6314414;22;45710;-92
2022/03/28 04:13:20;;;;;;;;;42.50;36.25;;;;;13.24;87.42;102025.25;6344473;22;45328;-93
2022/03/28 04:15:45;;;;;;;;;37.75;30.75;;;;;13.23;87.60;102027.78;6315392;22;45892;-92
2022/03/28 04:18:11;;;;;;;;;36.00;30.00;;;;;13.15;87.92;102024.72;6311187;22;45304;-92
2022/03/28 04:20:36;;;;;;;;;35.25;28.75;;;;;13.14;87.69;102031.72;6335722;22;45782;-93
2022/03/28 04:23:02;;;;;;;;;37.50;32.75;;;;;13.13;87.84;102034.28;6346364;22;45276;-93
2022/03/28 04:25:29;;;;;;;;;40.00;34.75;;;;;13.17;88.35;102031.91;6327789;22;47590;-91
2022/03/28 04:27:54;;;;;;;;;30.25;27.50;;;;;13.14;88.28;102036.09;6288654;22;45407;-92
2022/03/28 04:30:20;;;;;;;;;44.50;32.25;;;;;13.16;88.24;102039.72;6341371;22;45179;-92
2022/03/28 04:32:45;;;;;;;;;28.25;25.25;;;;;13.14;89.26;102031.72;6341739;22;45075;-92
2022/03/28 04:35:12;;;;;;;;;36.50;33.25;;;;;13.17;89.50;102033.63;6338908;22;47345;-92
2022/03/28 04:37:41;;;;;;;;;37.75;31.25;;;;;13.14;89.46;102023.81;6334105;22;45458;-92
2022/03/28 04:40:09;;;;;;;;;43.50;34.50;;;;;13.03;89.55;102012.69;6334038;22;45347;-91
2022/03/28 04:42:35;;;;;;;;;39.25;33.00;;;;;13.07;89.71;102034.84;6336352;22;45306;-91
2022/03/28 04:45:00;;;;;;;;;45.00;34.75;;;;;13.07;89.88;102032.19;6309626;22;46536;-92
2022/03/28 04:47:26;;;;;;;;;40.75;35.75;;;;;13.04;90.16;102032.06;6334015;22;45301;-93
2022/03/28 04:49:51;;;;;;;;;42.75;31.25;;;;;12.99;89.93;102015.97;6307142;22;45355;-92
2022/03/28 04:52:17;;;;;;;;;39.50;32.25;;;;;13.11;90.52;102028.03;6335760;22;50953;-92
2022/03/28 04:54:42;;;;;;;;;42.50;31.25;;;;;13.06;91.02;102023.41;6338520;22;47986;-92
2022/03/28 04:57:08;;;;;;;;;44.75;36.50;;;;;12.95;91.09;102003.44;6310630;22;46118;-92
2022/03/28 04:59:35;;;;;;;;;39.75;35.00;;;;;12.95;91.37;102012.25;6313896;22;45199;-93
2022/03/28 05:02:00;;;;;;;;;41.00;34.00;;;;;12.96;91.40;102018.44;6282510;22;45583;-92
2022/03/28 05:04:26;;;;;;;;;40.75;36.50;;;;;12.99;91.73;102015.06;6309082;22;47969;-92
2022/03/28 05:06:52;;;;;;;;;37.00;31.75;;;;;13.01;91.91;102024.88;6308638;22;45559;-92
2022/03/28 05:09:17;;;;;;;;;41.25;36.25;;;;;12.94;91.75;102010.44;6309386;22;45288;-92
2022/03/28 05:11:43;;;;;;;;;32.50;27.25;;;;;12.97;92.25;102017.59;6306540;22;45388;-93
2022/03/28 05:14:09;;;;;;;;;40.25;31.75;;;;;12.91;92.37;102012.91;6333120;22;47147;-93
2022/03/28 05:16:35;;;;;;;;;41.25;32.50;;;;;12.83;92.45;102006.31;6308882;22;45328;-91
2022/03/28 05:19:00;;;;;;;;;37.50;33.75;;;;;12.76;92.18;102002.41;6333916;22;45414;-92
2022/03/28 05:21:26;;;;;;;;;37.25;33.00;;;;;12.82;92.33;102007.13;6332817;22;45565;-92
2022/03/28 05:23:51;;;;;;;;;45.25;35.25;;;;;12.76;92.04;102006.75;6307072;22;48359;-92
2022/03/28 05:26:16;;;;;;;;;49.50;37.00;;;;;12.85;92.21;102023.09;6307237;22;45375;-91
2022/03/28 05:28:42;;;;;;;;;39.00;28.00;;;;;12.82;92.88;102021.22;6333436;22;45296;-91
2022/03/28 05:31:07;;;;;;;;;41.50;31.25;;;;;12.81;93.39;102008.84;6333464;22;45362;-92
2022/03/28 05:33:33;;;;;;;;;33.75;32.25;;;;;12.78;93.46;102006.03;6335842;22;45431;-93
2022/03/28 05:35:59;;;;;;;;;50.00;37.75;;;;;12.76;93.84;101998.84;6307166;22;45817;-92
2022/03/28 05:38:24;;;;;;;;;39.25;31.50;;;;;12.78;93.74;102003.38;6333746;22;45629;-93
2022/03/28 05:40:50;;;;;;;;;45.00;36.50;;;;;12.88;94.19;102017.09;6333706;22;45178;-92
2022/03/28 05:43:16;;;;;;;;;44.25;34.00;;;;;12.81;94.11;102002.66;6306796;22;48434;-92
2022/03/28 05:45:42;;;;;;;;;46.50;35.75;;;;;12.87;94.54;102005.66;6307273;22;45415;-92
2022/03/28 05:48:07;;;;;;;;;42.25;36.25;;;;;12.88;94.68;101996.94;6333305;22;45314;-92
2022/03/28 05:50:33;;;;;;;;;42.75;35.75;;;;;12.94;94.80;102002.53;6334484;22;45670;-92
2022/03/28 05:52:59;;;;;;;;;42.75;33.25;;;;;12.94;95.22;102001.63;6335069;22;46275;-92
2022/03/28 05:55:24;;;;;;;;;43.00;35.75;;;;;12.90;95.61;101992.66;6333852;22;45482;-93
2022/03/28 05:57:49;;;;;;;;;45.25;38.50;;;;;12.95;95.53;101993.81;6306825;22;46048;-91
2022/03/28 06:00:15;;;;;;;;;42.25;34.75;;;;;13.01;95.99;102003.81;6307015;22;45426;-91
2022/03/28 06:02:42;;;;;;;;;49.25;40.00;;;;;13.01;96.52;101992.34;6341956;22;46978;-92
2022/03/28 06:05:08;;;;;;;;;43.25;36.75;;;;;13.00;96.75;101994.06;6350580;22;45296;-91
2022/03/28 06:07:34;;;;;;;;;46.25;36.50;;;;;13.09;96.98;102001.56;6347725;22;45234;-92
2022/03/28 06:09:59;;;;;;;;;47.75;37.00;;;;;13.11;97.25;101996.38;6337339;22;45359;-92
2022/03/28 06:12:24;;;;;;;;;40.25;33.50;;;;;13.21;97.59;102000.44;6306707;22;52037;-92
2022/03/28 06:14:50;;;;;;;;;44.00;33.50;;;;;13.19;97.80;101984.53;6307426;22;45316;-92
2022/03/28 06:17:24;;;;;;;;;49.00;36.25;;;;;13.39;98.35;101996.16;6330053;22;44725;-93
2022/03/28 06:19:50;;;;;;;;;45.00;31.75;;;;;13.36;98.46;101998.63;6333644;22;45681;-91
2022/03/28 06:22:16;;;;;;;;;42.00;36.25;;;;;13.37;98.48;101989.00;6330349;22;45241;-89
2022/03/28 06:24:43;;;;;;;;;42.50;36.50;;;;;13.44;98.47;102001.69;6352330;22;44683;-87
2022/03/28 06:27:08;;;;;;;;;45.75;37.25;;;;;13.43;98.73;101984.03;6342926;22;45395;-89
2022/03/28 06:29:34;;;;;;;;;47.00;39.00;;;;;13.48;98.73;101987.81;6330973;22;45347;-88
2022/03/28 06:31:59;;;;;;;;;41.25;34.50;;;;;13.54;98.63;101994.25;6334160;22;45232;-87
2022/03/28 06:34:25;;;;;;;;;46.25;36.50;;;;;13.52;99.13;101986.28;6334375;22;45343;-85
2022/03/28 06:36:50;;;;;;;;;49.25;37.00;;;;;13.57;99.22;101991.81;6332793;22;45886;-86
2022/03/28 06:39:16;;;;;;;;;44.50;36.25;;;;;13.58;99.16;101991.88;6333559;22;45372;-87
2022/03/28 06:41:41;;;;;;;;;46.50;38.00;;;;;13.55;99.60;101986.44;6331175;22;48021;-87
2022/03/28 06:44:13;;;;;;;;;52.75;38.00;;;;;13.61;99.66;101997.34;6337613;22;45357;-87
2022/03/28 06:46:40;;;;;;;;;34.00;31.25;;;;;13.68;99.71;101992.41;6333816;22;45324;-87
2022/03/28 06:49:05;;;;;;;;;46.00;36.25;;;;;13.70;99.88;101980.19;6331680;22;45513;-87
2022/03/28 06:51:32;;;;;;;;;50.00;41.50;;;;;13.72;99.78;101981.16;6331201;22;45432;-88
2022/03/28 06:53:58;;;;;;;;;53.00;36.50;;;;;13.77;99.84;101990.22;6333592;22;45441;-87
2022/03/28 06:56:23;;;;;;;;;47.75;37.50;;;;;13.80;100.00;101993.03;6304599;22;45579;-87
2022/03/28 06:58:48;;;;;;;;;38.50;32.00;;;;;13.84;100.00;101986.16;6333460;22;45468;-87
2022/03/28 07:01:15;;;;;;;;;45.75;38.25;;;;;13.82;100.00;101967.63;6329994;22;46426;-87
2022/03/28 07:03:41;;;;;;;;;48.75;39.25;;;;;13.90;100.00;101975.94;6332782;22;45418;-86
2022/03/28 07:06:07;;;;;;;;;45.25;38.00;;;;;13.90;100.00;101969.75;6304505;22;45277;-87
2022/03/28 07:08:33;;;;;;;;;56.50;41.25;;;;;14.03;100.00;101976.56;6339367;22;45438;-86
2022/03/28 07:10:58;;;;;;;;;45.75;37.00;;;;;14.11;100.00;101967.31;6335723;22;45429;-86
2022/03/28 07:13:24;;;;;;;;;51.50;39.75;;;;;14.19;100.00;101962.41;6334602;22;45401;-86
2022/03/28 07:15:49;;;;;;;;;41.50;36.75;;;;;14.28;100.00;101973.41;6309172;22;45358;-87
2022/03/28 07:18:14;;;;;;;;;46.50;37.75;;;;;14.43;100.00;101974.13;6334524;22;45372;-86
2022/03/28 07:20:40;;;;;;;;;45.00;37.50;;;;;14.50;100.00;101966.56;6338761;22;46166;-86
2022/03/28 07:23:06;;;;;;;;;43.75;36.75;;;;;14.68;100.00;101973.56;6336609;22;45420;-86
2022/03/28 07:25:32;;;;;;;;;44.75;37.75;;;;;14.81;100.00;101971.53;6335062;22;45466;-86
2022/03/28 07:27:58;;;;;;;;;47.50;41.00;;;;;14.92;100.00;101961.50;6306416;22;45359;-86
2022/03/28 07:30:24;;;;;;;;;45.50;36.50;;;;;15.05;100.00;101977.06;6335804;22;47909;-86
2022/03/28 07:32:51;;;;;;;;;56.25;40.25;;;;;15.16;100.00;101974.94;6336903;22;45307;-87
2022/03/28 07:35:17;;;;;;;;;45.75;37.50;;;;;15.29;100.00;101968.47;6335211;22;45267;-87
2022/03/28 07:37:43;;;;;;;;;52.25;37.25;;;;;15.41;100.00;101972.53;6312675;22;45464;-87
2022/03/28 07:40:14;;;;;;;;;39.50;36.25;;;;;15.57;100.00;101970.53;6350338;22;45775;-87
2022/03/28 07:42:41;;;;;;;;;49.50;38.75;;;;;15.59;100.00;101964.47;6317688;22;45666;-87
2022/03/28 07:45:08;;;;;;;;;51.25;36.00;;;;;15.73;100.00;101970.38;6345188;22;45260;-86
2022/03/28 07:47:34;;;;;;;;;55.25;41.50;;;;;15.82;100.00;101961.03;6341547;22;45228;-87
2022/03/28 07:50:02;;;;;;;;;50.50;38.50;;;;;15.89;100.00;101963.13;6342456;22;45346;-87
2022/03/28 07:52:28;;;;;;;;;52.50;40.75;;;;;15.98;100.00;101962.59;6343665;22;45360;-86
2022/03/28 07:54:53;;;;;;;;;57.75;41.75;;;;;16.06;100.00;101955.91;6335208;22;45384;-87
2022/03/28 07:57:20;;;;;;;;;50.25;38.50;;;;;16.21;100.00;101957.38;6332245;22;45293;-87
2022/03/28 07:59:47;;;;;;;;;53.00;41.00;;;;;16.35;100.00;101963.25;6339964;22;46378;-88
2022/03/28 08:02:14;;;;;;;;;55.50;41.25;;;;;16.41;100.00;101960.88;6339772;22;45493;-87
2022/03/28 08:04:40;;;;;;;;;51.50;39.50;;;;;16.46;100.00;101958.41;6337734;22;45751;-87
2022/03/28 08:07:08;;;;;;;;;56.75;43.75;;;;;16.60;100.00;101958.94;6339436;22;45316;-87
2022/03/28 08:09:36;;;;;;;;;55.25;43.25;;;;;16.72;100.00;101962.94;6340068;22;46264;-87
2022/03/28 08:12:03;;;;;;;;;49.00;40.25;;;;;16.80;100.00;101958.81;6333002;22;45345;-87
2022/03/28 08:14:29;;;;;;;;;52.50;41.00;;;;;16.91;100.00;101969.84;6333871;22;45304;-87
2022/03/28 08:16:55;;;;;;;;;54.75;43.00;;;;;17.00;100.00;101958.72;6338120;22;45583;-87
2022/03/28 08:19:21;;;;;;;;;49.25;37.00;;;;;17.10;100.00;101957.31;6334835;22;45320;-87
2022/03/28 08:21:47;;;;;;;;;50.25;39.00;;;;;17.17;100.00;101955.81;6332000;22;45380;-87
2022/03/28 08:24:12;;;;;;;;;51.75;41.00;;;;;17.25;100.00;101948.13;6333818;22;45338;-87
2022/03/28 08:26:37;;;;;;;;;56.25;44.75;;;;;17.35;100.00;101962.63;6307289;22;45233;-87
2022/03/28 08:29:04;;;;;;;;;43.75;37.50;;;;;17.43;99.80;101953.22;6333370;22;45538;-87
2022/03/28 08:31:30;;;;;;;;;55.00;38.50;;;;;17.49;99.58;101957.84;6332963;22;45358;-88
2022/03/28 08:33:56;;;;;;;;;55.75;42.75;;;;;17.59;99.70;101954.69;6334859;22;45308;-87
2022/03/28 08:36:22;;;;;;;;;56.00;42.50;;;;;17.66;99.62;101955.78;6336302;22;45332;-87
2022/03/28 08:38:47;;;;;;;;;52.75;39.50;;;;;17.74;99.15;101954.31;6335381;22;46078;-88
2022/03/28 08:41:14;;;;;;;;;56.50;42.50;;;;;17.85;98.90;101956.44;6307822;22;45320;-87
2022/03/28 08:43:41;;;;;;;;;47.25;40.50;;;;;17.93;99.08;101948.72;6336087;22;45178;-87
2022/03/28 08:46:08;;;;;;;;;55.00;44.50;;;;;18.01;99.09;101943.69;6334696;22;45281;-88
2022/03/28 08:48:40;;;;;;;;;55.00;44.00;;;;;18.17;98.69;101951.28;6334000;22;45640;-87
2022/03/28 08:51:07;;;;;;;;;45.75;37.50;;;;;18.24;98.44;101955.13;6333904;22;45291;-88
2022/03/28 08:53:32;;;;;;;;;45.50;40.00;;;;;18.31;98.21;101958.88;6305500;22;45310;-88
2022/03/28 08:55:58;;;;;;;;;47.75;40.25;;;;;18.40;98.37;101947.63;6335100;22;45264;-88
2022/03/28 08:58:23;;;;;;;;;53.25;39.75;;;;;18.52;98.30;101952.44;6334862;22;46481;-88
2022/03/28 09:00:49;;;;;;;;;49.75;41.00;;;;;18.62;98.27;101943.91;6333955;22;45278;-88
2022/03/28 09:03:14;;;;;;;;;50.25;39.25;;;;;18.75;98.37;101938.94;6333708;22;45274;-88
2022/03/28 09:05:40;;;;;;;;;54.50;41.50;;;;;18.91;97.80;101942.97;6333715;22;45275;-88
2022/03/28 09:08:08;;;;;;;;;57.75;43.75;;;;;19.09;97.58;101955.94;6332180;22;45539;-88
2022/03/28 09:10:34;;;;;;;;;55.00;42.00;;;;;19.17;97.14;101950.81;6333121;22;45333;-88
2022/03/28 09:13:05;;;;;;;;;51.00;39.25;;;;;19.31;96.69;101940.59;6330428;22;45359;-88
2022/03/28 09:15:58;;;;;;;;;55.25;43.75;;;;;19.47;96.61;101937.44;6333483;22;45273;-89
2022/03/28 09:18:34;;;;;;;;;52.75;40.00;;;;;19.56;96.27;101940.34;6332855;22;45474;-88
2022/03/28 09:21:06;;;;;;;;;50.50;40.00;;;;;19.69;96.18;101932.72;6328914;22;46085;-88
2022/03/28 09:23:44;;;;;;;;;48.00;38.00;;;;;19.80;95.56;101930.31;6330376;22;45350;-88
2022/03/28 09:26:23;;;;;;;;;52.25;41.75;;;;;19.83;95.65;101933.97;6304981;22;45382;-88
2022/03/28 09:28:50;;;;;;;;;57.50;42.00;;;;;19.95;95.32;101935.13;6332676;22;45284;-88
2022/03/28 09:31:21;;;;;;;;;57.00;41.25;;;;;20.16;94.63;101939.22;6304151;22;45373;-88
2022/03/28 09:34:08;;;;;;;;;50.75;40.50;;;;;20.30;94.23;101937.81;6329473;22;45411;-88
2022/03/28 09:36:34;;;;;;;;;50.25;39.50;;;;;20.25;94.29;101936.81;6331798;22;45670;-88
2022/03/28 09:39:00;;;;;;;;;53.00;39.50;;;;;20.35;94.00;101935.25;6332244;22;45618;-88
2022/03/28 09:41:28;;;;;;;;;52.00;39.50;;;;;20.59;93.98;101934.00;6304107;22;45445;-88
2022/03/28 09:43:55;;;;;;;;;51.75;39.00;;;;;20.66;93.30;101924.38;6332814;22;45301;-87
2022/03/28 09:46:28;;;;;;;;;54.00;40.75;;;;;20.84;92.84;101931.00;6333125;22;45255;-88
2022/03/28 09:48:54;;;;;;;;;42.50;37.50;;;;;20.87;92.34;101925.72;6332101;22;45737;-88
2022/03/28 09:51:23;;;;;;;;;55.50;39.75;;;;;20.97;91.93;101921.47;6330567;22;45561;-87
2022/03/28 09:53:48;;;;;;;;;48.50;37.50;;;;;21.07;91.77;101917.25;6330349;22;45725;-88
2022/03/28 09:56:14;;;;;;;;;47.00;34.50;;;;;21.19;91.47;101925.50;6307646;22;45495;-88
2022/03/28 09:58:49;;;;;;;;;51.75;38.00;;;;;21.41;91.54;101925.03;6339678;22;45791;-88
2022/03/28 10:01:17;;;;;;;;;48.00;38.75;;;;;21.56;90.95;101924.41;6340560;22;45225;-88
2022/03/28 10:03:52;;;;;;;;;55.75;41.25;;;;;21.75;90.84;101911.41;6304829;22;45404;-88
2022/03/28 10:06:18;;;;;;;;;48.50;38.25;;;;;21.87;90.75;101910.72;6304196;22;45415;-88
2022/03/28 10:08:44;;;;;;;;;37.50;34.00;;;;;22.07;90.48;101911.03;6305988;22;45381;-88
2022/03/28 10:11:11;;;;;;;;;42.75;36.00;;;;;22.21;88.58;101900.53;6312517;22;45339;-88
2022/03/28 10:13:38;;;;;;;;;42.00;36.25;;;;;22.32;87.12;101903.38;6303865;22;45278;-88
2022/03/28 10:16:06;;;;;;;;;45.50;37.50;;;;;22.41;87.26;101901.72;6304969;22;45355;-88
2022/03/28 10:18:34;;;;;;;;;43.00;35.50;;;;;22.52;87.91;101891.19;6305768;22;46209;-88
2022/03/28 10:21:03;;;;;;;;;43.00;34.25;;;;;22.65;85.78;101895.81;6301139;22;45366;-88
2022/03/28 10:23:34;;;;;;;;;46.00;36.00;;;;;22.75;86.22;101890.63;6303845;22;45533;-88
2022/03/28 10:26:02;;;;;;;;;43.75;34.00;;;;;22.86;86.53;101886.28;6303607;22;45335;-88
2022/03/28 10:28:28;;;;;;;;;45.25;36.25;;;;;22.96;85.23;101886.41;6304494;22;46046;-88
2022/03/28 10:31:14;;;;;;;;;47.50;33.00;;;;;23.23;83.97;101882.22;6305419;22;45360;-88
2022/03/28 10:33:49;;;;;;;;;36.75;31.75;;;;;23.37;83.63;101860.94;6304402;22;45788;-88
2022/03/28 10:36:27;;;;;;;;;39.50;31.25;;;;;23.59;82.49;101877.25;6306504;22;45321;-88
2022/03/28 10:38:57;;;;;;;;;39.50;31.75;;;;;23.62;81.72;101874.59;6304119;22;45930;-89
2022/03/28 10:41:25;;;;;;;;;37.00;31.00;;;;;23.77;80.87;101865.78;6305947;22;45451;-88
2022/03/28 10:43:51;;;;;;;;;35.25;33.00;;;;;23.83;81.07;101872.97;6336902;22;45290;-88
2022/03/28 10:46:20;;;;;;;;;42.50;30.75;;;;;23.93;80.77;101871.25;6313342;22;44873;-89
2022/03/28 10:48:54;;;;;;;;;37.50;33.00;;;;;24.03;79.90;101865.94;6309025;22;45774;-92
2022/03/28 10:51:24;;;;;;;;;30.50;28.00;;;;;24.22;80.25;101859.81;6330328;22;45327;-87
2022/03/28 10:53:56;;;;;;;;;33.75;26.25;;;;;24.43;79.33;101851.94;6304472;22;45343;-88
2022/03/28 10:56:35;;;;;;;;;38.50;31.25;;;;;24.62;79.09;101843.94;6310808;22;45585;-88
2022/03/28 10:59:06;;;;;;;;;31.75;26.00;;;;;24.82;78.18;101846.69;6307336;22;45374;-88
2022/03/28 11:01:35;;;;;;;;;32.00;27.75;;;;;24.93;77.15;101840.44;6300963;22;45272;-87
2022/03/28 11:04:23;;;;;;;;;40.75;33.00;;;;;25.05;76.41;101831.56;6333650;22;45347;-86
2022/03/28 11:07:03;;;;;;;;;33.25;30.25;;;;;25.26;76.83;101830.69;6333599;22;45361;-86
2022/03/28 11:09:48;;;;;;;;;31.75;28.75;;;;;25.45;75.85;101822.63;6348266;22;45328;-88
2022/03/28 11:12:19;;;;;;;;;35.00;27.25;;;;;25.54;75.02;101811.88;6342378;22;45442;-91
2022/03/28 11:14:50;;;;;;;;;35.00;29.50;;;;;25.73;74.60;101813.66;6311021;22;45329;-88
2022/03/28 11:17:24;;;;;;;;;32.75;30.25;;;;;25.79;72.77;101808.31;6313193;22;45283;-88
2022/03/28 11:20:10;;;;;;;;;24.50;21.25;;;;;25.91;72.39;101803.78;6340607;22;45339;-88
2022/03/28 11:22:47;;;;;;;;;36.75;26.75;;;;;26.12;72.30;101802.84;6342751;22;44742;-88
2022/03/28 11:25:32;;;;;;;;;39.50;29.25;;;;;26.38;72.04;101800.94;6343052;22;45276;-88
2022/03/28 11:28:11;;;;;;;;;26.00;24.25;;;;;26.61;71.59;101800.88;6341433;22;45284;-88
2022/03/28 11:30:49;;;;;;;;;38.00;29.25;;;;;26.89;70.28;101791.72;6341578;22;45438;-89
2022/03/28 11:33:26;;;;;;;;;32.25;28.25;;;;;27.17;70.70;101791.53;6342729;22;45378;-90
2022/03/28 11:36:01;;;;;;;;;23.00;18.00;;;;;27.39;69.89;101782.41;6341595;22;45326;-89
2022/03/28 11:38:39;;;;;;;;;33.75;26.25;;;;;27.68;69.85;101794.69;6342587;22;45282;-88
2022/03/28 11:41:05;;;;;;;;;32.00;27.25;;;;;27.79;69.61;101783.78;6321755;22;46225;-89
2022/03/28 11:43:37;;;;;;;;;35.25;30.75;;;;;28.08;69.26;101781.69;6285538;22;45278;-89